Pride Of Kent — MQCJ2 — position and weather

sailwx.info

Track history (hours):
 
Tides and Currents Weather Stations Pressure Air Temp Water Temp Dewpoint Dewpoint Depression Visibility Wind Speed Wind Dir Waves Ship Positions

Pride Of Kent

Operator: P & O Ferries

Last reported at 2015-Mar-28 10:33 UTC. Time now 2015-Mar-28 11:09 UTC.
Position N 50°58' E 001°51'.

Length 180 m; draft 6 m.

Type: Passenger vessel. MMSI: 232009000.

Date/timePositionNaut miles runAvg speedWind from/ knotsBaromVisibWave heightAir tempDewpointWater temp
2015-Mar-28 10:33N 50°58' E 001°51'3 2.9
2015-Mar-28 09:33N 50°58' E 001°46'1716.5
2015-Mar-28 08:33N 51°06' E 001°23'2 2.0
2015-Mar-28 07:21N 51°07' E 001°20'1012.6
2015-Mar-28 06:33N 51°03' E 001°35'1210.9
2015-Mar-28 05:30N 50°58' E 001°51'3 3.5
2015-Mar-28 04:34N 50°58' E 001°46'1615.5
2015-Mar-28 03:33N 51°05' E 001°24'3 1.4
2015-Mar-28 01:33N 51°06' E 001°27'1514.7
2015-Mar-28 00:33N 50°58' E 001°47'2 2.4
2015-Mar-27 23:34N 50°58' E 001°51'1615.9
2015-Mar-27 22:33N 51°03' E 001°27'6 6.0
2015-Mar-27 21:33N 51°07' E 001°20'7 6.7
2015-Mar-27 20:33N 51°05' E 001°30'1514.8
2015-Mar-27 19:33N 50°58' E 001°51'2 1.5
2015-Mar-27 18:33N 50°58' E 001°48'1818.4
2015-Mar-27 17:33N 51°06' E 001°22'2 1.7
2015-Mar-27 16:31N 51°07' E 001°20'1515.8
2015-Mar-27 15:33N 50°60' E 001°41'7 6.6
2015-Mar-27 14:33N 50°58' E 001°51'1211.9
2015-Mar-27 13:34N 50°60' E 001°32'5 2.7
2015-Mar-27 11:33N 51°05' E 001°28'1615.6
2015-Mar-27 10:34N 50°58' E 001°51'1 0.5
2015-Mar-27 09:33N 50°58' E 001°50'1818.0
2015-Mar-27 08:34N 51°06' E 001°25'3 2.3
2015-Mar-27 07:11N 51°07' E 001°20'913.8
2015-Mar-27 06:33N 51°04' E 001°33'1311.3
2015-Mar-27 05:24N 50°58' E 001°51'2 2.3
2015-Mar-27 04:33N 50°58' E 001°48'1515.5
2015-Mar-27 03:34N 51°04' E 001°25'3 1.3
2015-Mar-27 01:34N 51°06' E 001°28'1414.1
2015-Mar-27 00:33N 50°58' E 001°46'3 2.9
2015-Mar-26 23:33N 50°58' E 001°51'1312.6
2015-Mar-26 22:34N 51°02' E 001°32'9 7.3
2015-Mar-26 21:16N 51°07' E 001°20'1013.9
2015-Mar-26 20:33N 51°04' E 001°35'1211.8
2015-Mar-26 19:33N 50°58' E 001°51'4 4.4
2015-Mar-26 18:33N 50°58' E 001°44'16 8.0
2015-Mar-26 16:34N 51°07' E 001°23'1716.6
2015-Mar-26 15:33N 50°58' E 001°45'4 3.5
2015-Mar-26 14:34N 50°58' E 001°51'1413.6
2015-Mar-26 13:34N 51°03' E 001°31'8 6.0
2015-Mar-26 12:13N 51°07' E 001°20'812.7
2015-Mar-26 11:34N 51°06' E 001°33'1413.5
2015-Mar-26 10:33N 50°58' E 001°51'3 3.2
2015-Mar-26 09:33N 50°58' E 001°46'1717.5
2015-Mar-26 08:34N 51°07' E 001°22'1 1.2
2015-Mar-26 07:29N 51°07' E 001°20'1011.2
2015-Mar-26 06:34N 51°04' E 001°36'1110.8
2015-Mar-26 05:31N 50°58' E 001°51'1 0.9
2015-Mar-26 04:34N 50°58' E 001°50'1716.8
2015-Mar-26 03:33N 51°05' E 001°25'2 0.8
2015-Mar-26 01:34N 51°07' E 001°25'1717.1
2015-Mar-26 00:33N 50°58' E 001°48'2 1.7
2015-Mar-25 23:34N 50°58' E 001°51'1615.8
2015-Mar-25 22:34N 51°04' E 001°28'6 5.3
2015-Mar-25 21:27N 51°07' E 001°20'8 9.5
2015-Mar-25 20:33N 51°04' E 001°32'1313.0
2015-Mar-25 19:33N 50°58' E 001°51'3 3.1
2015-Mar-25 18:33N 50°58' E 001°46'1717.1
2015-Mar-25 17:33N 51°06' E 001°22'2 1.8
2015-Mar-25 16:30N 51°07' E 001°20'1515.5
2015-Mar-25 15:34N 51°00' E 001°41'7 6.7
2015-Mar-25 14:32N 50°58' E 001°51'1010.1
2015-Mar-25 13:32N 51°00' E 001°35'7 3.8
2015-Mar-25 11:34N 51°06' E 001°28'1716.6
2015-Mar-25 10:33N 50°58' E 001°51'2 1.8
2015-Mar-25 09:33N 50°58' E 001°48'1716.6
2015-Mar-25 08:34N 51°05' E 001°24'3 2.9
2015-Mar-25 07:23N 51°07' E 001°20'1012.6
2015-Mar-25 06:34N 51°02' E 001°35'1111.1
2015-Mar-25 05:33N 50°58' E 001°51'1 0.9
2015-Mar-25 04:33N 50°58' E 001°50'1716.7
2015-Mar-25 03:34N 51°04' E 001°25'2 0.9
2015-Mar-25 01:34N 51°06' E 001°26'1717.3
2015-Mar-25 00:33N 50°58' E 001°51'4 3.9
2015-Mar-24 23:33N 50°58' E 001°45'1817.7
2015-Mar-24 22:33N 51°07' E 001°21'0 0.3
2015-Mar-24 21:33N 51°07' E 001°20'1515.2
2015-Mar-24 20:34N 50°60' E 001°41'7 6.8
2015-Mar-24 19:33N 50°58' E 001°52'9 9.0
2015-Mar-24 18:33N 50°59' E 001°38'14 6.8
2015-Mar-24 16:33N 51°07' E 001°20'1717.0
2015-Mar-24 15:33N 50°59' E 001°43'5 3.9
2015-Mar-24 14:19N 50°58' E 001°51'1316.6
2015-Mar-24 13:33N 51°02' E 001°32'9 6.4
2015-Mar-24 12:06N 51°07' E 001°20'814.0
2015-Mar-24 11:33N 51°04' E 001°31'1413.8
2015-Mar-24 10:33N 50°58' E 001°51'4 3.8
2015-Mar-24 09:33N 50°58' E 001°45'1717.1
2015-Mar-24 08:33N 51°07' E 001°22'1 1.0
2015-Mar-24 07:20N 51°07' E 001°20'1013.1
2015-Mar-24 06:33N 51°02' E 001°34'1111.2
2015-Mar-24 05:33N 50°58' E 001°51'2 2.4
2015-Mar-24 04:34N 50°58' E 001°47'1616.1
2015-Mar-24 03:33N 51°06' E 001°24'3 2.9
2015-Mar-24 02:26N 51°07' E 001°20'4 4.3
2015-Mar-24 01:33N 51°06' E 001°26'1515.2
2015-Mar-24 00:33N 50°58' E 001°46'3 3.1
2015-Mar-23 23:33N 50°58' E 001°51'1413.9
2015-Mar-23 22:33N 51°03' E 001°31'8 7.5
2015-Mar-23 21:32N 51°07' E 001°20'8 8.4
2015-Mar-23 20:33N 51°03' E 001°31'1313.5
2015-Mar-23 19:34N 50°58' E 001°51'4 4.2
2015-Mar-23 18:33N 50°58' E 001°44'1817.4
2015-Mar-23 17:32N 51°07' E 001°20'0 0.1
2015-Mar-23 16:33N 51°07' E 001°20'1616.6
2015-Mar-23 15:33N 50°58' E 001°42'6 5.3
2015-Mar-23 14:29N 50°58' E 001°51'1112.4
2015-Mar-23 13:34N 51°01' E 001°33'6 3.0
2015-Mar-23 11:34N 51°06' E 001°28'1616.1
2015-Mar-23 10:33N 50°58' E 001°51'2 2.3
2015-Mar-23 09:34N 50°58' E 001°47'1817.9
2015-Mar-23 08:33N 51°07' E 001°22'1 1.2
2015-Mar-23 07:30N 51°07' E 001°20'1313.4
2015-Mar-23 06:34N 51°01' E 001°37'9 9.5
2015-Mar-23 05:33N 50°58' E 001°52'6 6.4
2015-Mar-23 04:33N 50°58' E 001°42'1312.6
2015-Mar-23 03:33N 51°05' E 001°25'2 1.1
2015-Mar-23 01:33N 51°06' E 001°28'1515.3
2015-Mar-23 00:34N 50°58' E 001°49'1 1.2
2015-Mar-22 23:32N 50°58' E 001°51'1414.4
2015-Mar-22 22:34N 51°03' E 001°30'8 6.5
2015-Mar-22 21:23N 51°07' E 001°20'910.7
2015-Mar-22 20:33N 51°04' E 001°33'1312.6
2015-Mar-22 19:33N 50°58' E 001°51'3 2.7
2015-Mar-22 18:33N 50°58' E 001°47'1616.1
2015-Mar-22 17:34N 51°06' E 001°24'3 2.9
2015-Mar-22 16:34N 51°07' E 001°20'1414.2
2015-Mar-22 15:34N 51°00' E 001°40'7 5.2
2015-Mar-22 14:09N 50°58' E 001°51'915.1
2015-Mar-22 13:33N 50°60' E 001°37'9 4.5
2015-Mar-22 11:33N 51°06' E 001°27'1716.8
2015-Mar-22 10:34N 50°58' E 001°51'2 2.1
2015-Mar-22 09:33N 50°58' E 001°47'1717.5
2015-Mar-22 08:33N 51°06' E 001°23'2 1.8
2015-Mar-22 07:24N 51°07' E 001°20'4 5.0
2015-Mar-22 06:34N 51°06' E 001°26'1717.4
2015-Mar-22 05:33N 50°58' E 001°51'3 2.9
2015-Mar-22 04:34N 50°58' E 001°46'1514.7
2015-Mar-22 03:34N 51°05' E 001°26'1 0.7
2015-Mar-22 01:33N 51°06' E 001°28'1615.6
2015-Mar-22 00:34N 50°58' E 001°50'1 0.9
2015-Mar-21 23:34N 50°58' E 001°51'1313.2
2015-Mar-21 22:34N 51°03' E 001°32'9 6.6
2015-Mar-21 21:15N 51°07' E 001°20'1013.7
2015-Mar-21 20:33N 51°03' E 001°33'1212.0
2015-Mar-21 19:33N 50°58' E 001°51'1 0.8
2015-Mar-21 18:33N 50°58' E 001°50'1717.0
2015-Mar-21 17:34N 51°06' E 001°25'3 2.9
2015-Mar-21 16:33N 51°07' E 001°22'1818.1
2015-Mar-21 15:33N 50°58' E 001°47'2 2.4
2015-Mar-21 14:33N 50°58' E 001°50'1615.7
2015-Mar-21 13:34N 51°04' E 001°27'5 4.4
2015-Mar-21 12:20N 51°07' E 001°20'1013.1
2015-Mar-21 11:34N 51°04' E 001°36'1110.3
2015-Mar-21 10:27N 50°58' E 001°51'3 2.9
2015-Mar-21 09:34N 50°58' E 001°47'1818.0
2015-Mar-21 08:33N 51°07' E 001°22'1 1.1
2015-Mar-21 07:33N 51°07' E 001°20'8 8.1
2015-Mar-21 06:33N 51°03' E 001°31'1413.5
2015-Mar-21 05:33N 50°58' E 001°51'3 3.4
2015-Mar-21 04:34N 50°58' E 001°46'1514.7
2015-Mar-21 03:33N 51°05' E 001°25'4 2.7
2015-Mar-21 02:08N 51°07' E 001°20'916.3
2015-Mar-21 01:33N 51°03' E 001°34'1211.0
2015-Mar-21 00:27N 50°58' E 001°51'0 0.1
2015-Mar-20 23:33N 50°58' E 001°51'1515.6
2015-Mar-20 22:33N 51°03' E 001°28'7 4.5
2015-Mar-20 21:04N 51°07' E 001°20'713.3
2015-Mar-20 20:34N 51°05' E 001°30'1514.6
2015-Mar-20 19:34N 50°58' E 001°51'3 3.4
2015-Mar-20 18:33N 50°58' E 001°45'1817.6
2015-Mar-20 17:33N 51°07' E 001°21'1 0.7
2015-Mar-20 16:30N 51°07' E 001°20'1415.0
2015-Mar-20 15:34N 50°60' E 001°39'8 7.7
2015-Mar-20 14:33N 50°58' E 001°51'1212.0
2015-Mar-20 13:32N 51°01' E 001°32'1010.1
2015-Mar-20 12:33N 51°07' E 001°20'7 6.8
2015-Mar-20 11:33N 51°06' E 001°30'1514.6
2015-Mar-20 10:32N 50°58' E 001°51'2 1.8
2015-Mar-20 09:32N 50°58' E 001°48'1616.8
2015-Mar-20 08:34N 51°05' E 001°24'4 3.3
2015-Mar-20 07:26N 51°07' E 001°20'1416.5
2015-Mar-20 06:34N 50°60' E 001°40'7 7.2
2015-Mar-20 05:32N 50°58' E 001°51'4 4.2
2015-Mar-20 04:33N 50°58' E 001°44'1414.0
2015-Mar-20 03:33N 51°05' E 001°25'4 3.2
2015-Mar-20 02:18N 51°07' E 001°20'1215.7
2015-Mar-20 01:34N 51°02' E 001°36'10 8.5
2015-Mar-20 00:24N 50°58' E 001°51'1113.5
2015-Mar-19 23:33N 51°02' E 001°34'7 3.3
2015-Mar-19 21:34N 51°06' E 001°26'1717.3
2015-Mar-19 20:33N 50°58' E 001°51'1 0.8
2015-Mar-19 19:33N 50°58' E 001°49'1716.8
2015-Mar-19 18:34N 51°04' E 001°25'4 3.7
2015-Mar-19 17:25N 51°07' E 001°20'1516.9
2015-Mar-19 16:34N 50°60' E 001°40'7 7.0
2015-Mar-19 15:33N 50°58' E 001°51'2 2.1
2015-Mar-19 14:33N 50°58' E 001°48'1717.1
2015-Mar-19 13:33N 51°04' E 001°22'3 2.7
2015-Mar-19 12:22N 51°07' E 001°20'1214.5
2015-Mar-19 11:33N 51°02' E 001°37'10 9.7
2015-Mar-19 10:33N 50°58' E 001°51'5 5.4
2015-Mar-19 09:33N 50°58' E 001°42'17 8.4
2015-Mar-19 07:33N 51°07' E 001°20'1616.1
2015-Mar-19 06:33N 50°60' E 001°42'6 5.6
2015-Mar-19 05:34N 50°58' E 001°51'8 7.7
2015-Mar-19 04:33N 51°00' E 001°39'1413.9
2015-Mar-19 03:33N 51°07' E 001°20'0 0.1
2015-Mar-19 02:26N 51°07' E 001°20'1213.1
2015-Mar-19 01:33N 51°02' E 001°37'10 9.7
2015-Mar-19 00:32N 50°58' E 001°51'4 4.3
2015-Mar-18 23:33N 50°58' E 001°44'1616.0
2015-Mar-18 22:34N 51°06' E 001°23'2 1.9
2015-Mar-18 21:33N 51°07' E 001°20'1313.6
2015-Mar-18 20:34N 51°01' E 001°39'8 8.2
2015-Mar-18 19:34N 50°58' E 001°51'9 9.2
2015-Mar-18 18:33N 50°60' E 001°37'9 4.6
2015-Mar-18 16:33N 51°06' E 001°25'1817.7
2015-Mar-18 15:33N 50°58' E 001°51'0 0.2
2015-Mar-18 14:33N 50°58' E 001°50'1615.9
2015-Mar-18 13:34N 51°05' E 001°28'5 5.0
2015-Mar-18 12:30N 51°07' E 001°20'1111.4
2015-Mar-18 11:34N 51°04' E 001°36'  
Track history (hours):
 
Tides and Currents Weather Stations Pressure Air Temp Water Temp Dewpoint Dewpoint Depression Visibility Wind Speed Wind Dir Waves Ship Positions

Pride Of Kent

Operator: P & O Ferries

Last reported at 2015-Mar-28 10:33 UTC. Time now 2015-Mar-28 11:09 UTC.
Position N 50°58' E 001°51'.

Length 180 m; draft 6 m.

Type: Passenger vessel. MMSI: 232009000.

Date/timePositionNaut miles runAvg speedWind from/ knotsBaromVisibWave heightAir tempDewpointWater temp
2015-Mar-28 10:33N 50°58' E 001°51'3 2.9
2015-Mar-28 09:33N 50°58' E 001°46'1716.5
2015-Mar-28 08:33N 51°06' E 001°23'2 2.0
2015-Mar-28 07:21N 51°07' E 001°20'1012.6
2015-Mar-28 06:33N 51°03' E 001°35'1210.9
2015-Mar-28 05:30N 50°58' E 001°51'3 3.5
2015-Mar-28 04:34N 50°58' E 001°46'1615.5
2015-Mar-28 03:33N 51°05' E 001°24'3 1.4
2015-Mar-28 01:33N 51°06' E 001°27'1514.7
2015-Mar-28 00:33N 50°58' E 001°47'2 2.4
2015-Mar-27 23:34N 50°58' E 001°51'1615.9
2015-Mar-27 22:33N 51°03' E 001°27'6 6.0
2015-Mar-27 21:33N 51°07' E 001°20'7 6.7
2015-Mar-27 20:33N 51°05' E 001°30'1514.8
2015-Mar-27 19:33N 50°58' E 001°51'2 1.5
2015-Mar-27 18:33N 50°58' E 001°48'1818.4
2015-Mar-27 17:33N 51°06' E 001°22'2 1.7
2015-Mar-27 16:31N 51°07' E 001°20'1515.8
2015-Mar-27 15:33N 50°60' E 001°41'7 6.6
2015-Mar-27 14:33N 50°58' E 001°51'1211.9
2015-Mar-27 13:34N 50°60' E 001°32'5 2.7
2015-Mar-27 11:33N 51°05' E 001°28'1615.6
2015-Mar-27 10:34N 50°58' E 001°51'1 0.5
2015-Mar-27 09:33N 50°58' E 001°50'1818.0
2015-Mar-27 08:34N 51°06' E 001°25'3 2.3
2015-Mar-27 07:11N 51°07' E 001°20'913.8
2015-Mar-27 06:33N 51°04' E 001°33'1311.3
2015-Mar-27 05:24N 50°58' E 001°51'2 2.3
2015-Mar-27 04:33N 50°58' E 001°48'1515.5
2015-Mar-27 03:34N 51°04' E 001°25'3 1.3
2015-Mar-27 01:34N 51°06' E 001°28'1414.1
2015-Mar-27 00:33N 50°58' E 001°46'3 2.9
2015-Mar-26 23:33N 50°58' E 001°51'1312.6
2015-Mar-26 22:34N 51°02' E 001°32'9 7.3
2015-Mar-26 21:16N 51°07' E 001°20'1013.9
2015-Mar-26 20:33N 51°04' E 001°35'1211.8
2015-Mar-26 19:33N 50°58' E 001°51'4 4.4
2015-Mar-26 18:33N 50°58' E 001°44'16 8.0
2015-Mar-26 16:34N 51°07' E 001°23'1716.6
2015-Mar-26 15:33N 50°58' E 001°45'4 3.5
2015-Mar-26 14:34N 50°58' E 001°51'1413.6
2015-Mar-26 13:34N 51°03' E 001°31'8 6.0
2015-Mar-26 12:13N 51°07' E 001°20'812.7
2015-Mar-26 11:34N 51°06' E 001°33'1413.5
2015-Mar-26 10:33N 50°58' E 001°51'3 3.2
2015-Mar-26 09:33N 50°58' E 001°46'1717.5
2015-Mar-26 08:34N 51°07' E 001°22'1 1.2
2015-Mar-26 07:29N 51°07' E 001°20'1011.2
2015-Mar-26 06:34N 51°04' E 001°36'1110.8
2015-Mar-26 05:31N 50°58' E 001°51'1 0.9
2015-Mar-26 04:34N 50°58' E 001°50'1716.8
2015-Mar-26 03:33N 51°05' E 001°25'2 0.8
2015-Mar-26 01:34N 51°07' E 001°25'1717.1
2015-Mar-26 00:33N 50°58' E 001°48'2 1.7
2015-Mar-25 23:34N 50°58' E 001°51'1615.8
2015-Mar-25 22:34N 51°04' E 001°28'6 5.3
2015-Mar-25 21:27N 51°07' E 001°20'8 9.5
2015-Mar-25 20:33N 51°04' E 001°32'1313.0
2015-Mar-25 19:33N 50°58' E 001°51'3 3.1
2015-Mar-25 18:33N 50°58' E 001°46'1717.1
2015-Mar-25 17:33N 51°06' E 001°22'2 1.8
2015-Mar-25 16:30N 51°07' E 001°20'1515.5
2015-Mar-25 15:34N 51°00' E 001°41'7 6.7
2015-Mar-25 14:32N 50°58' E 001°51'1010.1
2015-Mar-25 13:32N 51°00' E 001°35'7 3.8
2015-Mar-25 11:34N 51°06' E 001°28'1716.6
2015-Mar-25 10:33N 50°58' E 001°51'2 1.8
2015-Mar-25 09:33N 50°58' E 001°48'1716.6
2015-Mar-25 08:34N 51°05' E 001°24'3 2.9
2015-Mar-25 07:23N 51°07' E 001°20'1012.6
2015-Mar-25 06:34N 51°02' E 001°35'1111.1
2015-Mar-25 05:33N 50°58' E 001°51'1 0.9
2015-Mar-25 04:33N 50°58' E 001°50'1716.7
2015-Mar-25 03:34N 51°04' E 001°25'2 0.9
2015-Mar-25 01:34N 51°06' E 001°26'1717.3
2015-Mar-25 00:33N 50°58' E 001°51'4 3.9
2015-Mar-24 23:33N 50°58' E 001°45'1817.7
2015-Mar-24 22:33N 51°07' E 001°21'0 0.3
2015-Mar-24 21:33N 51°07' E 001°20'1515.2
2015-Mar-24 20:34N 50°60' E 001°41'7 6.8
2015-Mar-24 19:33N 50°58' E 001°52'9 9.0
2015-Mar-24 18:33N 50°59' E 001°38'14 6.8
2015-Mar-24 16:33N 51°07' E 001°20'1717.0
2015-Mar-24 15:33N 50°59' E 001°43'5 3.9
2015-Mar-24 14:19N 50°58' E 001°51'1316.6
2015-Mar-24 13:33N 51°02' E 001°32'9 6.4
2015-Mar-24 12:06N 51°07' E 001°20'814.0
2015-Mar-24 11:33N 51°04' E 001°31'1413.8
2015-Mar-24 10:33N 50°58' E 001°51'4 3.8
2015-Mar-24 09:33N 50°58' E 001°45'1717.1
2015-Mar-24 08:33N 51°07' E 001°22'1 1.0
2015-Mar-24 07:20N 51°07' E 001°20'1013.1
2015-Mar-24 06:33N 51°02' E 001°34'1111.2
2015-Mar-24 05:33N 50°58' E 001°51'2 2.4
2015-Mar-24 04:34N 50°58' E 001°47'1616.1
2015-Mar-24 03:33N 51°06' E 001°24'3 2.9
2015-Mar-24 02:26N 51°07' E 001°20'4 4.3
2015-Mar-24 01:33N 51°06' E 001°26'1515.2
2015-Mar-24 00:33N 50°58' E 001°46'3 3.1
2015-Mar-23 23:33N 50°58' E 001°51'1413.9
2015-Mar-23 22:33N 51°03' E 001°31'8 7.5
2015-Mar-23 21:32N 51°07' E 001°20'8 8.4
2015-Mar-23 20:33N 51°03' E 001°31'1313.5
2015-Mar-23 19:34N 50°58' E 001°51'4 4.2
2015-Mar-23 18:33N 50°58' E 001°44'1817.4
2015-Mar-23 17:32N 51°07' E 001°20'0 0.1
2015-Mar-23 16:33N 51°07' E 001°20'1616.6
2015-Mar-23 15:33N 50°58' E 001°42'6 5.3
2015-Mar-23 14:29N 50°58' E 001°51'1112.4
2015-Mar-23 13:34N 51°01' E 001°33'6 3.0
2015-Mar-23 11:34N 51°06' E 001°28'1616.1
2015-Mar-23 10:33N 50°58' E 001°51'2 2.3
2015-Mar-23 09:34N 50°58' E 001°47'1817.9
2015-Mar-23 08:33N 51°07' E 001°22'1 1.2
2015-Mar-23 07:30N 51°07' E 001°20'1313.4
2015-Mar-23 06:34N 51°01' E 001°37'9 9.5
2015-Mar-23 05:33N 50°58' E 001°52'6 6.4
2015-Mar-23 04:33N 50°58' E 001°42'1312.6
2015-Mar-23 03:33N 51°05' E 001°25'2 1.1
2015-Mar-23 01:33N 51°06' E 001°28'1515.3
2015-Mar-23 00:34N 50°58' E 001°49'1 1.2
2015-Mar-22 23:32N 50°58' E 001°51'1414.4
2015-Mar-22 22:34N 51°03' E 001°30'8 6.5
2015-Mar-22 21:23N 51°07' E 001°20'910.7
2015-Mar-22 20:33N 51°04' E 001°33'1312.6
2015-Mar-22 19:33N 50°58' E 001°51'3 2.7
2015-Mar-22 18:33N 50°58' E 001°47'1616.1
2015-Mar-22 17:34N 51°06' E 001°24'3 2.9
2015-Mar-22 16:34N 51°07' E 001°20'1414.2
2015-Mar-22 15:34N 51°00' E 001°40'7 5.2
2015-Mar-22 14:09N 50°58' E 001°51'915.1
2015-Mar-22 13:33N 50°60' E 001°37'9 4.5
2015-Mar-22 11:33N 51°06' E 001°27'1716.8
2015-Mar-22 10:34N 50°58' E 001°51'2 2.1
2015-Mar-22 09:33N 50°58' E 001°47'1717.5
2015-Mar-22 08:33N 51°06' E 001°23'2 1.8
2015-Mar-22 07:24N 51°07' E 001°20'4 5.0
2015-Mar-22 06:34N 51°06' E 001°26'1717.4
2015-Mar-22 05:33N 50°58' E 001°51'3 2.9
2015-Mar-22 04:34N 50°58' E 001°46'1514.7
2015-Mar-22 03:34N 51°05' E 001°26'1 0.7
2015-Mar-22 01:33N 51°06' E 001°28'1615.6
2015-Mar-22 00:34N 50°58' E 001°50'1 0.9
2015-Mar-21 23:34N 50°58' E 001°51'1313.2
2015-Mar-21 22:34N 51°03' E 001°32'9 6.6
2015-Mar-21 21:15N 51°07' E 001°20'1013.7
2015-Mar-21 20:33N 51°03' E 001°33'1212.0
2015-Mar-21 19:33N 50°58' E 001°51'1 0.8
2015-Mar-21 18:33N 50°58' E 001°50'1717.0
2015-Mar-21 17:34N 51°06' E 001°25'3 2.9
2015-Mar-21 16:33N 51°07' E 001°22'1818.1
2015-Mar-21 15:33N 50°58' E 001°47'2 2.4
2015-Mar-21 14:33N 50°58' E 001°50'1615.7
2015-Mar-21 13:34N 51°04' E 001°27'5 4.4
2015-Mar-21 12:20N 51°07' E 001°20'1013.1
2015-Mar-21 11:34N 51°04' E 001°36'1110.3
2015-Mar-21 10:27N 50°58' E 001°51'3 2.9
2015-Mar-21 09:34N 50°58' E 001°47'1818.0
2015-Mar-21 08:33N 51°07' E 001°22'1 1.1
2015-Mar-21 07:33N 51°07' E 001°20'8 8.1
2015-Mar-21 06:33N 51°03' E 001°31'1413.5
2015-Mar-21 05:33N 50°58' E 001°51'3 3.4
2015-Mar-21 04:34N 50°58' E 001°46'1514.7
2015-Mar-21 03:33N 51°05' E 001°25'4 2.7
2015-Mar-21 02:08N 51°07' E 001°20'916.3
2015-Mar-21 01:33N 51°03' E 001°34'1211.0
2015-Mar-21 00:27N 50°58' E 001°51'0 0.1
2015-Mar-20 23:33N 50°58' E 001°51'1515.6
2015-Mar-20 22:33N 51°03' E 001°28'7 4.5
2015-Mar-20 21:04N 51°07' E 001°20'713.3
2015-Mar-20 20:34N 51°05' E 001°30'1514.6
2015-Mar-20 19:34N 50°58' E 001°51'3 3.4
2015-Mar-20 18:33N 50°58' E 001°45'1817.6
2015-Mar-20 17:33N 51°07' E 001°21'1 0.7
2015-Mar-20 16:30N 51°07' E 001°20'1415.0
2015-Mar-20 15:34N 50°60' E 001°39'8 7.7
2015-Mar-20 14:33N 50°58' E 001°51'1212.0
2015-Mar-20 13:32N 51°01' E 001°32'1010.1
2015-Mar-20 12:33N 51°07' E 001°20'7 6.8
2015-Mar-20 11:33N 51°06' E 001°30'1514.6
2015-Mar-20 10:32N 50°58' E 001°51'2 1.8
2015-Mar-20 09:32N 50°58' E 001°48'1616.8
2015-Mar-20 08:34N 51°05' E 001°24'4 3.3
2015-Mar-20 07:26N 51°07' E 001°20'1416.5
2015-Mar-20 06:34N 50°60' E 001°40'7 7.2
2015-Mar-20 05:32N 50°58' E 001°51'4 4.2
2015-Mar-20 04:33N 50°58' E 001°44'1414.0
2015-Mar-20 03:33N 51°05' E 001°25'4 3.2
2015-Mar-20 02:18N 51°07' E 001°20'1215.7
2015-Mar-20 01:34N 51°02' E 001°36'10 8.5
2015-Mar-20 00:24N 50°58' E 001°51'1113.5
2015-Mar-19 23:33N 51°02' E 001°34'7 3.3
2015-Mar-19 21:34N 51°06' E 001°26'1717.3
2015-Mar-19 20:33N 50°58' E 001°51'1 0.8
2015-Mar-19 19:33N 50°58' E 001°49'1716.8
2015-Mar-19 18:34N 51°04' E 001°25'4 3.7
2015-Mar-19 17:25N 51°07' E 001°20'1516.9
2015-Mar-19 16:34N 50°60' E 001°40'7 7.0
2015-Mar-19 15:33N 50°58' E 001°51'2 2.1
2015-Mar-19 14:33N 50°58' E 001°48'1717.1
2015-Mar-19 13:33N 51°04' E 001°22'3 2.7
2015-Mar-19 12:22N 51°07' E 001°20'1214.5
2015-Mar-19 11:33N 51°02' E 001°37'10 9.7
2015-Mar-19 10:33N 50°58' E 001°51'5 5.4
2015-Mar-19 09:33N 50°58' E 001°42'17 8.4
2015-Mar-19 07:33N 51°07' E 001°20'1616.1
2015-Mar-19 06:33N 50°60' E 001°42'6 5.6
2015-Mar-19 05:34N 50°58' E 001°51'8 7.7
2015-Mar-19 04:33N 51°00' E 001°39'1413.9
2015-Mar-19 03:33N 51°07' E 001°20'0 0.1
2015-Mar-19 02:26N 51°07' E 001°20'1213.1
2015-Mar-19 01:33N 51°02' E 001°37'10 9.7
2015-Mar-19 00:32N 50°58' E 001°51'4 4.3
2015-Mar-18 23:33N 50°58' E 001°44'1616.0
2015-Mar-18 22:34N 51°06' E 001°23'2 1.9
2015-Mar-18 21:33N 51°07' E 001°20'1313.6
2015-Mar-18 20:34N 51°01' E 001°39'8 8.2
2015-Mar-18 19:34N 50°58' E 001°51'9 9.2
2015-Mar-18 18:33N 50°60' E 001°37'9 4.6
2015-Mar-18 16:33N 51°06' E 001°25'1817.7
2015-Mar-18 15:33N 50°58' E 001°51'0 0.2
2015-Mar-18 14:33N 50°58' E 001°50'1615.9
2015-Mar-18 13:34N 51°05' E 001°28'5 5.0
2015-Mar-18 12:30N 51°07' E 001°20'1111.4
2015-Mar-18 11:34N 51°04' E 001°36'  

Dump ship's entire track history